Main page
Satellite images 10-day forecastsClimateMarine weather Cyclones Lightning AirportsFAQ Newsletter About
Weather : Europe Africa North America South America Asia Australia-Oceania Others
Languages Contact

Lisbon, Portugal

Portela

latitude: 38-46N, longitude: 009-08W, elevation: 114 m


METAR: LPPT 252130Z 32005KT 280V020 CAVOK 11/07 Q1028
TAF: LPPT 251700Z 2518/2624 35010KT CAVOK

Time: 22:15 (22:15 UTC)

Current weather observation

The report was made 45 minutes ago, at 21:30 UTC
Wind 5 kt from the Northwest, varying between West and North/Northeast
Temperature 11°C
Humidity 76%
Pressure 1028 hPa
Visibility 10 km or more
no clouds below 1500 m and no cumulonimbus

Change units

Forecast

The report was made 5 hours and 15 minutes ago, at 17:00 UTC
Forecast valid from 25 at 18 UTC to 26 at 24 UTC
Wind 10 kt from the North
Visibility 10 km or more
no clouds below 1500 m and no cumulonimbus
The information on this site is subject to a disclaimer
Weather : Europe Africa North America South America Asia Australia-Oceania Others
Satellite images 10-day forecastsClimateMarine weather Cyclones Lightning AirportsFAQ Languages Contact Newsletter About